Time;durP1;ratioP1;P1;durP2;ratioP2;P2;SDS_P1;SDS_P2;PMS_P1;PMS_P2;Temp;Humidity;BMP_temperature;BMP_pressure;BME280_temperature;BME280_humidity;BME280_pressure;Samples;Min_cycle;Max_cycle;Signal;HPM_P1;HPM_P2
2022/05/27 00:02:30;;;;;;;26.52;10.70;;;;;;;;;;5009124;28;20532;-67
2022/05/27 00:05:01;;;;;;;23.95;10.82;;;;;;;;;;4990787;28;20050;-67
2022/05/27 00:07:32;;;;;;;19.02;10.38;;;;;;;;;;4990099;28;20058;-67
2022/05/27 00:10:04;;;;;;;21.50;11.10;;;;;;;;;;4994320;28;20065;-66
2022/05/27 00:12:34;;;;;;;20.48;10.43;;;;;;;;;;5030856;28;20046;-66
2022/05/27 00:15:05;;;;;;;17.90;10.18;;;;;;;;;;5030566;28;20056;-66
2022/05/27 00:17:36;;;;;;;21.25;9.82;;;;;;;;;;5030369;28;20057;-66
2022/05/27 00:20:08;;;;;;;23.50;9.95;;;;;;;;;;5029363;28;20049;-66
2022/05/27 00:22:39;;;;;;;18.52;9.68;;;;;;;;;;5010340;28;20049;-66
2022/05/27 00:25:10;;;;;;;18.08;10.15;;;;;;;;;;4975089;28;20053;-66
2022/05/27 00:27:40;;;;;;;20.15;11.18;;;;;;;;;;4960668;28;20414;-68
2022/05/27 00:30:11;;;;;;;19.80;10.82;;;;;;;;;;4991030;28;20058;-66
2022/05/27 00:32:42;;;;;;;24.02;10.35;;;;;;;;;;4990978;28;20050;-66
2022/05/27 00:35:12;;;;;;;20.15;9.50;;;;;;;;;;4970911;28;20051;-66
2022/05/27 00:37:42;;;;;;;20.70;9.45;;;;;;;;;;4971120;28;20057;-66
2022/05/27 00:40:14;;;;;;;19.85;9.70;;;;;;;;;;4962464;28;20059;-66
2022/05/27 00:42:46;;;;;;;21.80;9.77;;;;;;;;;;4982139;28;20055;-68
2022/05/27 00:45:20;;;;;;;22.08;10.15;;;;;;;;;;4983280;28;20050;-67
2022/05/27 00:47:54;;;;;;;19.35;10.48;;;;;;;;;;4940289;28;20046;-67
2022/05/27 00:50:30;;;;;;;16.83;9.77;;;;;;;;;;4990014;28;20050;-67
2022/05/27 00:53:04;;;;;;;18.40;9.65;;;;;;;;;;5002573;28;20477;-67
2022/05/27 00:55:41;;;;;;;20.95;9.45;;;;;;;;;;4990364;28;20054;-68
2022/05/27 00:58:18;;;;;;;21.15;9.45;;;;;;;;;;4974496;28;20059;-67
2022/05/27 01:00:49;;;;;;;16.00;9.23;;;;;;;;;;4974405;28;20065;-67
2022/05/27 01:03:21;;;;;;;21.83;9.90;;;;;;;;;;4985196;28;20065;-67
2022/05/27 01:05:51;;;;;;;19.20;9.75;;;;;;;;;;4963155;28;20050;-67
2022/05/27 01:08:24;;;;;;;19.17;9.65;;;;;;;;;;4993525;28;20054;-67
2022/05/27 01:11:32;;;;;;;21.80;9.90;;;;;;;;;;5020629;28;20045;-67
2022/05/27 01:14:43;;;;;;;19.38;9.52;;;;;;;;;;4950973;29;20614;-68
2022/05/27 01:17:34;;;;;;;17.33;9.48;;;;;;;;;;4906034;29;20076;-67
2022/05/27 01:20:19;;;;;;;22.38;10.00;;;;;;;;;;4909540;29;20044;-67
2022/05/27 01:23:03;;;;;;;22.67;9.50;;;;;;;;;;4909216;29;20406;-67
2022/05/27 01:25:54;;;;;;;18.35;9.50;;;;;;;;;;4909449;29;20171;-67
2022/05/27 01:28:35;;;;;;;17.95;9.20;;;;;;;;;;4897008;29;20428;-67
2022/05/27 01:31:13;;;;;;;18.67;9.35;;;;;;;;;;4905603;29;20170;-67
2022/05/27 01:33:53;;;;;;;18.25;10.23;;;;;;;;;;4883208;29;20061;-67
2022/05/27 01:36:44;;;;;;;19.17;9.98;;;;;;;;;;4875542;29;20057;-66
2022/05/27 01:39:35;;;;;;;20.13;10.43;;;;;;;;;;4875591;29;20053;-67
2022/05/27 01:42:32;;;;;;;19.77;10.15;;;;;;;;;;4877755;29;20052;-67
2022/05/27 01:45:36;;;;;;;22.65;11.02;;;;;;;;;;4878625;29;20513;-67
2022/05/27 01:48:31;;;;;;;19.02;9.43;;;;;;;;;;4856900;29;20064;-67
2022/05/27 01:51:10;;;;;;;22.27;10.30;;;;;;;;;;4885491;29;20056;-67
2022/05/27 01:53:44;;;;;;;20.95;9.95;;;;;;;;;;4893209;29;20052;-67
2022/05/27 01:56:36;;;;;;;21.13;9.82;;;;;;;;;;4893662;29;20052;-67
2022/05/27 01:59:16;;;;;;;20.40;9.73;;;;;;;;;;4890653;29;20054;-67
2022/05/27 02:01:57;;;;;;;19.98;10.65;;;;;;;;;;4881267;29;20057;-67
2022/05/27 02:04:49;;;;;;;20.60;11.15;;;;;;;;;;4852666;29;20049;-68
2022/05/27 02:07:29;;;;;;;20.60;10.38;;;;;;;;;;4885934;29;21385;-67
2022/05/27 02:10:18;;;;;;;19.98;10.60;;;;;;;;;;4889521;29;20513;-67
2022/05/27 02:12:55;;;;;;;19.13;9.88;;;;;;;;;;4881881;29;20131;-67
2022/05/27 02:15:32;;;;;;;22.02;10.65;;;;;;;;;;4875103;29;20068;-67
2022/05/27 02:18:19;;;;;;;19.95;11.15;;;;;;;;;;4876743;29;20056;-68
2022/05/27 02:20:55;;;;;;;19.38;9.70;;;;;;;;;;4918983;29;20056;-68
2022/05/27 02:23:33;;;;;;;18.98;10.52;;;;;;;;;;4923408;28;20048;-68
2022/05/27 02:26:09;;;;;;;22.67;10.88;;;;;;;;;;4977516;28;20047;-68
2022/05/27 02:28:44;;;;;;;21.13;10.88;;;;;;;;;;4932306;28;20544;-69
2022/05/27 02:31:21;;;;;;;19.90;10.43;;;;;;;;;;4978735;28;20112;-69
2022/05/27 02:37:00;;;;;;;19.90;10.50;;;;;;;;;;5030780;28;20040;-69
2022/05/27 02:39:31;;;;;;;19.02;10.25;;;;;;;;;;5073481;28;20039;-69
2022/05/27 02:42:20;;;;;;;20.88;10.30;;;;;;;;;;5074741;28;20040;-68
2022/05/27 02:45:09;;;;;;;17.58;9.25;;;;;;;;;;5043576;28;20390;-68
2022/05/27 02:47:52;;;;;;;19.85;10.00;;;;;;;;;;5040234;28;20454;-68
2022/05/27 02:51:00;;;;;;;16.83;9.27;;;;;;;;;;5043131;28;20441;-68
2022/05/27 02:53:51;;;;;;;17.65;9.20;;;;;;;;;;4948281;29;20511;-68
2022/05/27 02:56:27;;;;;;;;;;;;;;;;;;4954892;29;20401;-68
2022/05/27 02:58:58;;;;;;;21.17;9.27;;;;;;;;;;4906699;29;19922;-67
2022/05/27 03:01:28;;;;;;;23.67;10.50;;;;;;;;;;4903151;29;20052;-68
2022/05/27 03:03:59;;;;;;;23.42;10.15;;;;;;;;;;4919544;29;20056;-68
2022/05/27 03:06:49;;;;;;;19.85;10.25;;;;;;;;;;4919467;29;20408;-67
2022/05/27 03:09:38;;;;;;;19.13;10.32;;;;;;;;;;4934753;29;20051;-68
2022/05/27 03:12:27;;;;;;;18.50;9.82;;;;;;;;;;4915704;29;20436;-68
2022/05/27 03:15:21;;;;;;;16.85;9.68;;;;;;;;;;4915931;29;20071;-67
2022/05/27 03:18:27;;;;;;;22.75;11.07;;;;;;;;;;4915629;29;20444;-68
2022/05/27 03:21:26;;;;;;;21.05;10.50;;;;;;;;;;4915861;29;20736;-67
2022/05/27 03:24:02;;;;;;;20.38;9.90;;;;;;;;;;4922013;29;20066;-68
2022/05/27 03:26:56;;;;;;;20.88;9.85;;;;;;;;;;4934440;29;20064;-68
2022/05/27 03:29:44;;;;;;;21.35;9.52;;;;;;;;;;4934522;29;20058;-68
2022/05/27 03:32:20;;;;;;;21.65;9.43;;;;;;;;;;4991241;28;20058;-68
2022/05/27 03:35:14;;;;;;;20.98;9.43;;;;;;;;;;4953044;28;20059;-68
2022/05/27 03:37:58;;;;;;;18.38;9.43;;;;;;;;;;4921321;28;20055;-68
2022/05/27 03:40:33;;;;;;;19.27;9.60;;;;;;;;;;4918454;29;20052;-69
2022/05/27 03:43:05;;;;;;;16.77;9.65;;;;;;;;;;4933556;29;20051;-69
2022/05/27 03:45:51;;;;;;;21.65;9.73;;;;;;;;;;4934156;29;20059;-68
2022/05/27 03:48:24;;;;;;;17.77;8.75;;;;;;;;;;4934229;29;20063;-68
2022/05/27 03:51:06;;;;;;;17.42;9.02;;;;;;;;;;4915954;29;20052;-68
2022/05/27 03:56:28;;;;;;;18.90;9.40;;;;;;;;;;4902171;29;20052;-68
2022/05/27 03:58:59;;;;;;;19.65;9.07;;;;;;;;;;4914713;29;20052;-68
2022/05/27 04:01:30;;;;;;;19.23;10.40;;;;;;;;;;4879775;29;20040;-68
2022/05/27 04:04:04;;;;;;;16.70;9.63;;;;;;;;;;4914613;29;20715;-68
2022/05/27 04:06:34;;;;;;;19.75;8.95;;;;;;;;;;4914676;29;20044;-68
2022/05/27 04:09:05;;;;;;;20.50;9.48;;;;;;;;;;4914657;29;20060;-68
2022/05/27 04:11:36;;;;;;;20.10;8.75;;;;;;;;;;4919468;29;20054;-68
2022/05/27 04:14:08;;;;;;;21.75;9.68;;;;;;;;;;4944469;29;20679;-68
2022/05/27 04:16:39;;;;;;;20.40;8.88;;;;;;;;;;4952676;29;20062;-69
2022/05/27 04:19:09;;;;;;;19.35;8.77;;;;;;;;;;4949593;29;20055;-68
2022/05/27 04:21:39;;;;;;;17.98;9.35;;;;;;;;;;4952386;29;20066;-68
2022/05/27 04:24:11;;;;;;;18.05;9.00;;;;;;;;;;4952725;29;20062;-68
2022/05/27 04:26:41;;;;;;;17.58;8.85;;;;;;;;;;4952565;29;20062;-68
2022/05/27 04:29:12;;;;;;;17.70;8.88;;;;;;;;;;4952749;29;20055;-69
2022/05/27 04:31:42;;;;;;;16.27;9.10;;;;;;;;;;4952707;29;20516;-68
2022/05/27 04:34:12;;;;;;;16.15;8.88;;;;;;;;;;4969793;28;20043;-68
2022/05/27 04:36:43;;;;;;;18.52;8.98;;;;;;;;;;4962209;28;20054;-68
2022/05/27 04:39:16;;;;;;;18.55;9.30;;;;;;;;;;4945330;29;20055;-68
2022/05/27 04:41:46;;;;;;;18.63;8.70;;;;;;;;;;4971456;28;20050;-69
2022/05/27 04:44:17;;;;;;;18.58;9.73;;;;;;;;;;4971725;28;20058;-68
2022/05/27 04:46:47;;;;;;;18.25;8.27;;;;;;;;;;4971375;28;20058;-68
2022/05/27 04:52:07;;;;;;;15.43;8.82;;;;;;;;;;4971565;28;20065;-69
2022/05/27 04:54:37;;;;;;;20.20;8.63;;;;;;;;;;4983091;28;20054;-68
2022/05/27 04:57:09;;;;;;;15.57;9.00;;;;;;;;;;5002723;28;20626;-68
2022/05/27 04:59:40;;;;;;;17.48;8.40;;;;;;;;;;5007237;28;20065;-68
2022/05/27 05:02:11;;;;;;;15.63;9.63;;;;;;;;;;5030002;28;20064;-68
2022/05/27 05:04:41;;;;;;;18.45;8.40;;;;;;;;;;5030076;28;20061;-69
2022/05/27 05:07:11;;;;;;;17.50;8.80;;;;;;;;;;5029754;28;20714;-69
2022/05/27 05:09:43;;;;;;;17.50;8.40;;;;;;;;;;5010086;28;20065;-69
2022/05/27 05:12:14;;;;;;;18.70;8.23;;;;;;;;;;4990093;28;20445;-69
2022/05/27 05:14:45;;;;;;;18.15;8.27;;;;;;;;;;5029740;28;20058;-69
2022/05/27 05:17:15;;;;;;;18.08;8.45;;;;;;;;;;5029672;28;20065;-68
2022/05/27 05:19:46;;;;;;;13.73;7.82;;;;;;;;;;5029872;28;20057;-68
2022/05/27 05:22:16;;;;;;;13.55;7.57;;;;;;;;;;5013631;28;20053;-68
2022/05/27 05:24:47;;;;;;;17.75;8.45;;;;;;;;;;5029815;28;20061;-68
2022/05/27 05:27:17;;;;;;;18.38;8.90;;;;;;;;;;5013429;28;20046;-67
2022/05/27 05:29:48;;;;;;;17.50;8.60;;;;;;;;;;4997594;28;20061;-68
2022/05/27 05:32:19;;;;;;;18.92;8.55;;;;;;;;;;5009494;28;20520;-68
2022/05/27 05:34:54;;;;;;;19.73;8.90;;;;;;;;;;4970236;28;20365;-68
2022/05/27 05:37:26;;;;;;;17.25;7.70;;;;;;;;;;4950924;28;20510;-68
2022/05/27 05:39:56;;;;;;;15.38;8.48;;;;;;;;;;4915434;29;20060;-68
2022/05/27 05:42:27;;;;;;;15.90;8.60;;;;;;;;;;4915995;29;20412;-70
2022/05/27 05:45:00;;;;;;;15.02;8.05;;;;;;;;;;4932232;29;20050;-68
2022/05/27 05:47:30;;;;;;;15.38;8.10;;;;;;;;;;4931900;29;20056;-66
2022/05/27 05:50:00;;;;;;;17.02;8.18;;;;;;;;;;4916510;29;20536;-67
2022/05/27 05:52:30;;;;;;;15.95;8.43;;;;;;;;;;4931714;29;20075;-67
2022/05/27 05:55:01;;;;;;;18.83;8.68;;;;;;;;;;4916411;29;20532;-66
2022/05/27 05:57:32;;;;;;;15.02;7.68;;;;;;;;;;4900305;29;20055;-67
2022/05/27 06:00:02;;;;;;;15.88;7.97;;;;;;;;;;4932234;29;20063;-67
2022/05/27 06:02:39;;;;;;;17.77;7.95;;;;;;;;;;4931970;29;20058;-67
2022/05/27 06:05:10;;;;;;;15.48;7.93;;;;;;;;;;4927663;29;20048;-66
2022/05/27 06:07:42;;;;;;;18.58;8.85;;;;;;;;;;4944405;28;20059;-66
2022/05/27 06:10:14;;;;;;;16.48;8.75;;;;;;;;;;4901586;29;20453;-66
2022/05/27 06:12:45;;;;;;;15.68;8.05;;;;;;;;;;4931486;29;20055;-66
2022/05/27 06:15:22;;;;;;;17.92;8.68;;;;;;;;;;4943588;28;20526;-67
2022/05/27 06:17:53;;;;;;;16.00;8.10;;;;;;;;;;4950822;28;20462;-66
2022/05/27 06:20:23;;;;;;;16.30;7.60;;;;;;;;;;4930797;28;20735;-66
2022/05/27 06:22:53;;;;;;;17.40;7.95;;;;;;;;;;4969991;28;20067;-66
2022/05/27 06:25:24;;;;;;;15.43;7.80;;;;;;;;;;4989480;28;20490;-67
2022/05/27 06:34:23;;;;;;;13.57;7.57;;;;;;;;;;4989016;28;20050;-67
2022/05/27 06:36:23;;;;;;;14.98;7.38;;;;;;;;;;4988628;28;20046;-67
2022/05/27 06:38:53;;;;;;;14.30;7.68;;;;;;;;;;4973498;28;20081;-67
2022/05/27 06:41:24;;;;;;;19.63;8.13;;;;;;;;;;4989142;28;20605;-66
2022/05/27 06:43:55;;;;;;;16.80;7.88;;;;;;;;;;4991036;28;20054;-67
2022/05/27 06:46:26;;;;;;;14.23;7.63;;;;;;;;;;5008671;28;20517;-66
2022/05/27 06:48:56;;;;;;;15.65;7.68;;;;;;;;;;4992415;28;20062;-66
2022/05/27 06:51:27;;;;;;;12.07;6.78;;;;;;;;;;5008704;28;20057;-67
2022/05/27 06:53:57;;;;;;;13.63;7.28;;;;;;;;;;5008993;28;20073;-67
2022/05/27 06:56:27;;;;;;;15.18;7.03;;;;;;;;;;5008845;28;20105;-67
2022/05/27 06:58:58;;;;;;;15.15;7.45;;;;;;;;;;5008632;28;20054;-67
2022/05/27 07:01:28;;;;;;;22.25;7.50;;;;;;;;;;5008690;28;20490;-67
2022/05/27 07:03:59;;;;;;;13.50;6.60;;;;;;;;;;4988736;28;20055;-67
2022/05/27 07:06:37;;;;;;;14.07;6.93;;;;;;;;;;4977099;28;20057;-67
2022/05/27 07:09:08;;;;;;;17.35;7.43;;;;;;;;;;5028478;28;20058;-66
2022/05/27 07:11:41;;;;;;;13.27;6.68;;;;;;;;;;5028420;28;20374;-68
2022/05/27 07:14:13;;;;;;;14.32;7.13;;;;;;;;;;5048052;28;20049;-66
2022/05/27 07:16:45;;;;;;;14.95;6.45;;;;;;;;;;5047948;28;20071;-66
2022/05/27 07:19:35;;;;;;;14.63;6.47;;;;;;;;;;5051966;28;20069;-67
2022/05/27 07:22:08;;;;;;;16.52;7.18;;;;;;;;;;5051824;28;20524;-67
2022/05/27 07:24:39;;;;;;;;;;;;;;;;;;5002820;28;20052;-67
2022/05/27 07:27:09;;;;;;;12.20;6.70;;;;;;;;;;5035485;28;19920;-67
2022/05/27 07:29:39;;;;;;;14.23;7.72;;;;;;;;;;5051834;28;20049;-67
2022/05/27 07:32:10;;;;;;;12.57;6.85;;;;;;;;;;5031451;28;20060;-67
2022/05/27 07:34:41;;;;;;;13.10;6.82;;;;;;;;;;5031597;28;20049;-67
2022/05/27 07:37:11;;;;;;;13.00;6.53;;;;;;;;;;4982241;28;20053;-67
2022/05/27 07:39:41;;;;;;;18.70;6.43;;;;;;;;;;5015107;28;20057;-66
2022/05/27 07:42:11;;;;;;;13.55;6.38;;;;;;;;;;4982339;28;20057;-66
2022/05/27 07:44:42;;;;;;;13.93;6.65;;;;;;;;;;4992091;28;20063;-68
2022/05/27 07:47:12;;;;;;;13.63;6.43;;;;;;;;;;4991991;28;20063;-68
2022/05/27 07:49:42;;;;;;;13.93;7.03;;;;;;;;;;4992004;28;20059;-67
2022/05/27 07:52:12;;;;;;;12.05;6.70;;;;;;;;;;4979220;28;20070;-68
2022/05/27 07:54:42;;;;;;;13.55;6.40;;;;;;;;;;4972697;28;20082;-67
2022/05/27 07:57:24;;;;;;;14.45;7.07;;;;;;;;;;4972527;28;20542;-67
2022/05/27 08:00:07;;;;;;;14.23;6.45;;;;;;;;;;4972711;28;20062;-66
2022/05/27 08:02:40;;;;;;;14.65;6.93;;;;;;;;;;4972942;28;20051;-67
2022/05/27 08:05:13;;;;;;;13.93;6.65;;;;;;;;;;4972580;28;20066;-67
2022/05/27 08:07:44;;;;;;;20.73;6.60;;;;;;;;;;4972283;28;20057;-67
2022/05/27 08:10:19;;;;;;;12.07;5.97;;;;;;;;;;4972490;28;20071;-67
2022/05/27 08:12:50;;;;;;;13.93;6.22;;;;;;;;;;5000002;28;20058;-67
2022/05/27 08:15:20;;;;;;;11.40;6.15;;;;;;;;;;5009829;28;20045;-67
2022/05/27 08:17:50;;;;;;;12.25;5.72;;;;;;;;;;5050661;28;20060;-67
2022/05/27 08:20:24;;;;;;;10.07;5.53;;;;;;;;;;5010835;28;20041;-66
2022/05/27 08:22:57;;;;;;;13.15;6.07;;;;;;;;;;4994760;28;20049;-66
2022/05/27 08:25:29;;;;;;;12.70;5.90;;;;;;;;;;5010993;28;20062;-67
2022/05/27 08:28:00;;;;;;;12.32;5.80;;;;;;;;;;4977886;28;20042;-67
2022/05/27 08:30:33;;;;;;;11.90;6.05;;;;;;;;;;4961677;28;20081;-68
2022/05/27 08:33:05;;;;;;;12.45;5.78;;;;;;;;;;5011053;28;20418;-68
2022/05/27 08:38:34;;;;;;;11.52;5.72;;;;;;;;;;4991020;28;20054;-68
2022/05/27 08:41:14;;;;;;;11.43;6.38;;;;;;;;;;4990982;28;20066;-67
2022/05/27 08:44:02;;;;;;;13.15;6.40;;;;;;;;;;4971339;28;20058;-68
2022/05/27 08:46:47;;;;;;;14.32;6.93;;;;;;;;;;4939457;28;20059;-68
2022/05/27 08:49:24;;;;;;;12.45;6.38;;;;;;;;;;4971557;28;20415;-69
2022/05/27 08:52:04;;;;;;;12.35;5.88;;;;;;;;;;4971649;28;20066;-70
2022/05/27 08:54:57;;;;;;;12.57;6.90;;;;;;;;;;4973532;28;20062;-71
2022/05/27 09:00:30;;;;;;;11.45;5.55;;;;;;;;;;4998380;28;20069;-71
2022/05/27 09:03:07;;;;;;;16.13;6.75;;;;;;;;;;5010311;28;20062;-72
2022/05/27 09:05:58;;;;;;;11.38;6.13;;;;;;;;;;5010409;28;20046;-73
2022/05/27 09:08:30;;;;;;;15.00;6.28;;;;;;;;;;5010159;28;20075;-72
2022/05/27 09:11:37;;;;;;;15.35;7.45;;;;;;;;;;4993791;28;20057;-71
2022/05/27 09:14:21;;;;;;;15.85;6.88;;;;;;;;;;5010163;28;20072;-71
2022/05/27 09:17:05;;;;;;;12.52;5.72;;;;;;;;;;5010309;28;20078;-72
2022/05/27 09:20:11;;;;;;;12.02;6.32;;;;;;;;;;5009997;28;20057;-70
2022/05/27 09:23:04;;;;;;;15.25;7.47;;;;;;;;;;5029719;28;20054;-71
2022/05/27 09:25:56;;;;;;;13.73;6.35;;;;;;;;;;5029916;28;20045;-71
2022/05/27 09:29:15;;;;;;;16.05;8.57;;;;;;;;;;5005101;28;20424;-70
2022/05/27 09:31:51;;;;;;;19.05;9.10;;;;;;;;;;5029101;28;20092;-69
2022/05/27 09:34:27;;;;;;;16.90;8.30;;;;;;;;;;5009441;28;20077;-69
2022/05/27 09:37:03;;;;;;;20.02;10.35;;;;;;;;;;5009141;28;20057;-69
2022/05/27 09:39:34;;;;;;;16.35;8.20;;;;;;;;;;4976899;28;20054;-69
2022/05/27 09:42:19;;;;;;;19.67;10.05;;;;;;;;;;5009758;28;20075;-69
2022/05/27 09:44:50;;;;;;;;;;;;;;;;;;4990207;28;20062;-69
2022/05/27 09:47:23;;;;;;;20.25;10.15;;;;;;;;;;4976732;28;19928;-68
2022/05/27 09:50:00;;;;;;;21.98;11.35;;;;;;;;;;4989555;28;20050;-68
2022/05/27 09:52:39;;;;;;;19.67;10.63;;;;;;;;;;4950592;29;20447;-68
2022/05/27 09:55:39;;;;;;;22.05;10.45;;;;;;;;;;4950907;29;20507;-68
2022/05/27 09:58:10;;;;;;;24.77;11.10;;;;;;;;;;4928074;29;20097;-75
2022/05/27 10:00:44;;;;;;;21.73;11.60;;;;;;;;;;4905755;29;20520;-75
2022/05/27 10:03:32;;;;;;;21.20;10.50;;;;;;;;;;4860340;29;20049;-75
2022/05/27 10:06:10;;;;;;;19.08;9.75;;;;;;;;;;4893728;29;20048;-73
2022/05/27 10:08:56;;;;;;;19.88;10.32;;;;;;;;;;4903201;29;20071;-74
2022/05/27 10:11:34;;;;;;;21.90;11.23;;;;;;;;;;4917694;29;20082;-73
2022/05/27 10:14:24;;;;;;;21.85;11.32;;;;;;;;;;4931956;29;20056;-70
2022/05/27 10:17:10;;;;;;;18.77;8.23;;;;;;;;;;4938577;29;20562;-68
2022/05/27 10:19:47;;;;;;;21.55;10.55;;;;;;;;;;4950681;28;20055;-69
2022/05/27 10:22:24;;;;;;;;;;;;;;;;;;4922980;28;20056;-68
2022/05/27 10:24:59;;;;;;;17.38;8.90;;;;;;;;;;4942869;28;19969;-69
2022/05/27 10:27:53;;;;;;;18.85;8.98;;;;;;;;;;4969847;28;20054;-69
2022/05/27 10:30:28;;;;;;;19.08;10.20;;;;;;;;;;4969731;28;20066;-70
2022/05/27 10:33:22;;;;;;;18.30;9.77;;;;;;;;;;4969782;28;20466;-68
2022/05/27 10:35:54;;;;;;;21.00;9.90;;;;;;;;;;5010140;28;20460;-67
2022/05/27 10:38:53;;;;;;;22.80;10.75;;;;;;;;;;5012164;28;20060;-67
2022/05/27 10:41:34;;;;;;;19.15;10.32;;;;;;;;;;5028402;28;20170;-68
2022/05/27 10:44:18;;;;;;;20.90;11.38;;;;;;;;;;4979517;28;20064;-68
2022/05/27 10:46:56;;;;;;;26.85;11.52;;;;;;;;;;5012740;28;20518;-68
2022/05/27 10:49:30;;;;;;;19.80;10.48;;;;;;;;;;5028027;28;20041;-69
2022/05/27 10:52:06;;;;;;;28.38;11.60;;;;;;;;;;5028757;28;20049;-69
2022/05/27 10:54:54;;;;;;;23.92;11.45;;;;;;;;;;4999462;28;20050;-70
2022/05/27 11:04:03;;;;;;;67.32;28.98;;;;;;;;;;5074649;28;20403;-69
2022/05/27 11:06:54;;;;;;;41.63;19.85;;;;;;;;;;5094721;28;20047;-69
2022/05/27 11:09:47;;;;;;;38.33;20.38;;;;;;;;;;5092114;28;20056;-72
2022/05/27 11:15:39;;;;;;;29.08;14.13;;;;;;;;;;5031727;28;20056;-69
2022/05/27 11:18:21;;;;;;;29.13;13.35;;;;;;;;;;4979041;28;20062;-71
2022/05/27 11:21:36;;;;;;;30.52;15.95;;;;;;;;;;5003721;28;20050;-69
2022/05/27 11:24:27;;;;;;;20.80;11.57;;;;;;;;;;4948719;28;20058;-68
2022/05/27 11:27:33;;;;;;;22.98;11.05;;;;;;;;;;4952339;29;20071;-68
2022/05/27 11:30:11;;;;;;;23.98;11.43;;;;;;;;;;4937126;29;20519;-68
2022/05/27 11:33:01;;;;;;;25.17;12.45;;;;;;;;;;4931099;29;20051;-71
2022/05/27 11:35:47;;;;;;;31.30;13.05;;;;;;;;;;4932601;29;20059;-70
2022/05/27 11:38:30;;;;;;;25.13;12.25;;;;;;;;;;4929220;29;20067;-69
2022/05/27 11:41:20;;;;;;;25.27;11.63;;;;;;;;;;4933736;29;20051;-72
2022/05/27 11:44:08;;;;;;;22.25;12.38;;;;;;;;;;4949450;29;20515;-69
2022/05/27 11:46:39;;;;;;;22.17;11.00;;;;;;;;;;4940039;29;20078;-69
2022/05/27 11:49:30;;;;;;;23.92;12.05;;;;;;;;;;4919988;29;20185;-67
2022/05/27 11:52:24;;;;;;;20.42;10.73;;;;;;;;;;4950760;29;20062;-67
2022/05/27 11:55:03;;;;;;;23.00;11.10;;;;;;;;;;4928368;29;20056;-67
2022/05/27 11:57:49;;;;;;;23.45;11.20;;;;;;;;;;4952861;29;20051;-66
2022/05/27 12:00:24;;;;;;;23.85;13.30;;;;;;;;;;4905011;29;20078;-67
2022/05/27 12:03:03;;;;;;;27.40;13.32;;;;;;;;;;4952329;28;20043;-66
2022/05/27 12:05:38;;;;;;;22.13;12.20;;;;;;;;;;4952618;29;20074;-68
2022/05/27 12:08:37;;;;;;;24.52;13.10;;;;;;;;;;4952523;29;20074;-69
2022/05/27 12:11:31;;;;;;;26.27;12.70;;;;;;;;;;4968447;28;20061;-70
2022/05/27 12:14:29;;;;;;;25.98;13.73;;;;;;;;;;5060879;28;20056;-69
2022/05/27 12:17:02;;;;;;;32.10;15.20;;;;;;;;;;5067439;28;20056;-70
2022/05/27 12:19:37;;;;;;;36.53;17.02;;;;;;;;;;5029007;28;20046;-71
2022/05/27 12:22:23;;;;;;;30.30;15.60;;;;;;;;;;5010856;28;20049;-69
2022/05/27 12:25:16;;;;;;;42.38;19.55;;;;;;;;;;5010557;28;20426;-70
2022/05/27 12:27:48;;;;;;;27.35;13.82;;;;;;;;;;4948445;28;20061;-70
2022/05/27 12:30:20;;;;;;;;;;;;;;;;;;5030998;28;20045;-71
2022/05/27 12:32:51;;;;;;;20.60;11.32;;;;;;;;;;5030629;28;19928;-70
2022/05/27 12:35:32;;;;;;;39.47;20.90;;;;;;;;;;5030445;28;20049;-69
2022/05/27 12:38:30;;;;;;;32.00;16.85;;;;;;;;;;4997237;28;20054;-69
2022/05/27 12:41:04;;;;;;;27.85;12.63;;;;;;;;;;4990816;28;20054;-70
2022/05/27 12:43:38;;;;;;;19.35;10.75;;;;;;;;;;4991266;28;20062;-72
2022/05/27 12:46:29;;;;;;;46.05;25.70;;;;;;;;;;4990676;28;20054;-70
2022/05/27 12:49:38;;;;;;;23.50;14.35;;;;;;;;;;4932894;29;20058;-69
2022/05/27 12:52:29;;;;;;;17.05;9.73;;;;;;;;;;4928323;29;20059;-70
2022/05/27 12:55:04;;;;;;;18.65;10.27;;;;;;;;;;4920496;29;20060;-70
2022/05/27 13:03:40;;;;;;;15.20;8.13;;;;;;;;;;4971244;28;20519;-70
2022/05/27 13:06:17;;;;;;;48.17;23.60;;;;;;;;;;4971205;28;20060;-70
2022/05/27 13:08:53;;;;;;;18.73;9.50;;;;;;;;;;4970950;28;20051;-69
2022/05/27 13:11:23;;;;;;;15.23;8.05;;;;;;;;;;4971089;28;20074;-70
2022/05/27 13:14:21;;;;;;;17.50;9.57;;;;;;;;;;4970310;28;20058;-69
2022/05/27 13:17:06;;;;;;;16.67;7.70;;;;;;;;;;4952706;28;20047;-71
2022/05/27 13:20:03;;;;;;;15.13;7.45;;;;;;;;;;4978476;28;20510;-71
2022/05/27 13:23:00;;;;;;;14.63;7.97;;;;;;;;;;4990202;28;20069;-70
2022/05/27 13:25:35;;;;;;;14.23;7.60;;;;;;;;;;4973979;28;20048;-71
2022/05/27 13:28:28;;;;;;;14.07;7.30;;;;;;;;;;5069360;28;20052;-67
2022/05/27 13:31:02;;;;;;;19.88;11.15;;;;;;;;;;5069421;28;20512;-68
2022/05/27 13:33:44;;;;;;;13.88;7.60;;;;;;;;;;5069371;28;20048;-68
2022/05/27 13:36:27;;;;;;;17.17;9.00;;;;;;;;;;5068953;28;20056;-70
2022/05/27 13:39:10;;;;;;;14.13;7.68;;;;;;;;;;5028690;28;20065;-70
2022/05/27 13:41:48;;;;;;;12.40;7.20;;;;;;;;;;5004913;28;20062;-69
2022/05/27 13:44:25;;;;;;;15.07;8.88;;;;;;;;;;4976826;28;20050;-69
2022/05/27 13:47:00;;;;;;;14.98;8.85;;;;;;;;;;4989852;28;20063;-68
2022/05/27 13:49:49;;;;;;;15.38;9.15;;;;;;;;;;4989755;28;20465;-69
2022/05/27 13:52:21;;;;;;;15.50;8.88;;;;;;;;;;4989722;28;20407;-68
2022/05/27 13:55:07;;;;;;;16.88;8.55;;;;;;;;;;4989951;28;20050;-70
2022/05/27 13:57:42;;;;;;;13.65;6.97;;;;;;;;;;4989740;28;20058;-68
2022/05/27 14:00:18;;;;;;;12.95;7.03;;;;;;;;;;4989667;28;20059;-69
2022/05/27 14:02:51;;;;;;;12.98;6.97;;;;;;;;;;4950772;29;20059;-69
2022/05/27 14:05:32;;;;;;;12.95;6.68;;;;;;;;;;4950934;29;20070;-68
2022/05/27 14:08:03;;;;;;;13.88;6.88;;;;;;;;;;4903816;29;20055;-69
2022/05/27 14:10:41;;;;;;;12.93;7.05;;;;;;;;;;4950807;29;20075;-69
2022/05/27 14:13:30;;;;;;;13.00;6.70;;;;;;;;;;4957523;28;20082;-69
2022/05/27 14:16:00;;;;;;;11.80;6.43;;;;;;;;;;4973578;28;20058;-68
2022/05/27 14:18:33;;;;;;;12.75;6.82;;;;;;;;;;4957375;28;20061;-68
2022/05/27 14:24:00;;;;;;;13.35;6.82;;;;;;;;;;5028176;28;20044;-65
2022/05/27 14:26:36;;;;;;;17.30;7.10;;;;;;;;;;5028576;28;20056;-65
2022/05/27 14:29:14;;;;;;;12.43;7.03;;;;;;;;;;5027639;28;20180;-65
2022/05/27 14:31:45;;;;;;;14.10;7.32;;;;;;;;;;4976042;28;20049;-67
2022/05/27 14:34:19;;;;;;;11.18;6.35;;;;;;;;;;4960010;28;20065;-67
2022/05/27 14:37:27;;;;;;;14.02;6.45;;;;;;;;;;4988375;28;20055;-68
2022/05/27 14:40:12;;;;;;;12.27;6.50;;;;;;;;;;4912229;29;20059;-69
2022/05/27 14:42:42;;;;;;;13.18;7.22;;;;;;;;;;4921316;29;20066;-68
2022/05/27 14:45:53;;;;;;;15.60;6.95;;;;;;;;;;4931433;29;20067;-68
2022/05/27 14:48:43;;;;;;;13.60;7.15;;;;;;;;;;4877857;29;20053;-68
2022/05/27 14:51:20;;;;;;;15.38;7.60;;;;;;;;;;4846824;29;20055;-67
2022/05/27 14:53:53;;;;;;;15.98;7.68;;;;;;;;;;4858950;29;20060;-68
2022/05/27 14:56:28;;;;;;;14.27;7.20;;;;;;;;;;4874777;29;20175;-67
2022/05/27 14:59:08;;;;;;;15.45;7.53;;;;;;;;;;4874788;29;20080;-67
2022/05/27 15:01:41;;;;;;;15.02;7.13;;;;;;;;;;4892885;29;20050;-66
2022/05/27 15:04:12;;;;;;;12.57;6.32;;;;;;;;;;4893198;29;20164;-66
2022/05/27 15:06:46;;;;;;;12.75;7.03;;;;;;;;;;4893194;29;20068;-67
2022/05/27 15:09:36;;;;;;;13.07;7.45;;;;;;;;;;4885020;29;20068;-67
2022/05/27 15:12:21;;;;;;;12.73;6.80;;;;;;;;;;4858953;29;20057;-69
2022/05/27 15:14:52;;;;;;;13.82;7.00;;;;;;;;;;4835041;29;20056;-67
2022/05/27 15:17:33;;;;;;;13.85;6.55;;;;;;;;;;4917955;29;20056;-67
2022/05/27 15:20:14;;;;;;;11.05;6.20;;;;;;;;;;4979657;28;20070;-68
2022/05/27 15:22:57;;;;;;;13.45;6.50;;;;;;;;;;4989066;28;20053;-68
2022/05/27 15:25:38;;;;;;;11.63;6.25;;;;;;;;;;4988927;28;20058;-67
2022/05/27 15:34:02;;;;;;;17.50;8.85;;;;;;;;;;5008146;28;20045;-68
2022/05/27 15:36:33;;;;;;;13.88;6.72;;;;;;;;;;4992168;28;20057;-68
2022/05/27 15:39:04;;;;;;;13.88;6.47;;;;;;;;;;5025819;28;20064;-70
2022/05/27 15:41:40;;;;;;;11.35;5.80;;;;;;;;;;5031242;28;20509;-67
2022/05/27 15:44:10;;;;;;;12.40;6.68;;;;;;;;;;5031432;28;20049;-66
2022/05/27 15:46:41;;;;;;;12.57;6.18;;;;;;;;;;5031370;28;20058;-66
2022/05/27 15:49:12;;;;;;;12.50;6.68;;;;;;;;;;5031391;28;20056;-68
2022/05/27 15:51:44;;;;;;;15.70;6.95;;;;;;;;;;5031236;28;20137;-66
2022/05/27 15:54:14;;;;;;;12.73;6.70;;;;;;;;;;5011496;28;20053;-66
2022/05/27 15:56:44;;;;;;;14.15;7.20;;;;;;;;;;5011245;28;20050;-66
2022/05/27 15:59:14;;;;;;;13.57;7.25;;;;;;;;;;5011448;28;20414;-66
2022/05/27 16:01:45;;;;;;;15.40;7.13;;;;;;;;;;5011116;28;20061;-67
2022/05/27 16:04:16;;;;;;;14.18;6.80;;;;;;;;;;4995317;28;20062;-66
2022/05/27 16:06:46;;;;;;;23.77;12.02;;;;;;;;;;5011107;28;20062;-67
2022/05/27 16:09:16;;;;;;;17.38;8.80;;;;;;;;;;5011343;28;20050;-67
2022/05/27 16:11:47;;;;;;;15.20;7.80;;;;;;;;;;4990044;28;20438;-67
2022/05/27 16:14:17;;;;;;;16.75;8.02;;;;;;;;;;4998310;28;20081;-67
2022/05/27 16:19:36;;;;;;;15.52;8.00;;;;;;;;;;4991633;28;20062;-66
2022/05/27 16:22:06;;;;;;;15.48;8.20;;;;;;;;;;4991439;28;20058;-66